sensor_id;sensor_type;location;lat;lon;timestamp;P1;P2;P0
74333;PMS5003;62753;40.394;-80.022;2023-05-07T00:00:34;4;4;
74333;PMS5003;62753;40.394;-80.022;2023-05-07T00:02:59;4;4;
74333;PMS5003;62753;40.394;-80.022;2023-05-07T00:05:24;4;4;
74333;PMS5003;62753;40.394;-80.022;2023-05-07T00:07:49;4;4;
74333;PMS5003;62753;40.394;-80.022;2023-05-07T00:10:15;2;2;
74333;PMS5003;62753;40.394;-80.022;2023-05-07T00:12:40;3;3;
74333;PMS5003;62753;40.394;-80.022;2023-05-07T00:15:06;3;3;
74333;PMS5003;62753;40.394;-80.022;2023-05-07T00:17:31;4;4;
74333;PMS5003;62753;40.394;-80.022;2023-05-07T00:19:55;5;5;
74333;PMS5003;62753;40.394;-80.022;2023-05-07T00:22:20;5;5;
74333;PMS5003;62753;40.394;-80.022;2023-05-07T00:24:46;7;7;
74333;PMS5003;62753;40.394;-80.022;2023-05-07T00:27:11;12;12;
74333;PMS5003;62753;40.394;-80.022;2023-05-07T00:29:37;18;17;
74333;PMS5003;62753;40.394;-80.022;2023-05-07T00:32:02;16;15;
74333;PMS5003;62753;40.394;-80.022;2023-05-07T00:34:28;15;14;
74333;PMS5003;62753;40.394;-80.022;2023-05-07T00:36:53;13;13;
74333;PMS5003;62753;40.394;-80.022;2023-05-07T00:39:19;13;10;
74333;PMS5003;62753;40.394;-80.022;2023-05-07T00:41:45;14;12;
74333;PMS5003;62753;40.394;-80.022;2023-05-07T00:44:10;16;15;
74333;PMS5003;62753;40.394;-80.022;2023-05-07T00:46:36;19;18;
74333;PMS5003;62753;40.394;-80.022;2023-05-07T00:49:01;15;14;
74333;PMS5003;62753;40.394;-80.022;2023-05-07T00:51:26;16;16;
74333;PMS5003;62753;40.394;-80.022;2023-05-07T00:53:52;17;14;
74333;PMS5003;62753;40.394;-80.022;2023-05-07T00:56:18;17;15;
74333;PMS5003;62753;40.394;-80.022;2023-05-07T00:58:44;17;16;
74333;PMS5003;62753;40.394;-80.022;2023-05-07T01:01:09;14;13;
74333;PMS5003;62753;40.394;-80.022;2023-05-07T01:03:34;11;11;
74333;PMS5003;62753;40.394;-80.022;2023-05-07T01:06:00;10;9;
74333;PMS5003;62753;40.394;-80.022;2023-05-07T01:08:25;8;8;
74333;PMS5003;62753;40.394;-80.022;2023-05-07T01:10:50;9;9;
74333;PMS5003;62753;40.394;-80.022;2023-05-07T01:13:15;8;8;
74333;PMS5003;62753;40.394;-80.022;2023-05-07T01:15:41;9;9;
74333;PMS5003;62753;40.394;-80.022;2023-05-07T01:18:06;12;11;
74333;PMS5003;62753;40.394;-80.022;2023-05-07T01:20:32;13;12;
74333;PMS5003;62753;40.394;-80.022;2023-05-07T01:22:57;16;14;
74333;PMS5003;62753;40.394;-80.022;2023-05-07T01:25:22;11;11;
74333;PMS5003;62753;40.394;-80.022;2023-05-07T01:27:47;14;13;
74333;PMS5003;62753;40.394;-80.022;2023-05-07T01:30:13;11;11;
74333;PMS5003;62753;40.394;-80.022;2023-05-07T01:32:40;14;13;
74333;PMS5003;62753;40.394;-80.022;2023-05-07T01:35:05;19;18;
74333;PMS5003;62753;40.394;-80.022;2023-05-07T01:37:29;25;20;
74333;PMS5003;62753;40.394;-80.022;2023-05-07T01:39:54;17;16;
74333;PMS5003;62753;40.394;-80.022;2023-05-07T01:42:20;9;9;
74333;PMS5003;62753;40.394;-80.022;2023-05-07T01:44:46;16;14;
74333;PMS5003;62753;40.394;-80.022;2023-05-07T01:47:11;8;8;
74333;PMS5003;62753;40.394;-80.022;2023-05-07T01:49:36;9;9;
74333;PMS5003;62753;40.394;-80.022;2023-05-07T01:52:01;13;13;
74333;PMS5003;62753;40.394;-80.022;2023-05-07T01:54:27;16;16;
74333;PMS5003;62753;40.394;-80.022;2023-05-07T01:56:52;23;21;
74333;PMS5003;62753;40.394;-80.022;2023-05-07T01:59:17;26;23;
74333;PMS5003;62753;40.394;-80.022;2023-05-07T02:01:42;36;36;
74333;PMS5003;62753;40.394;-80.022;2023-05-07T02:04:08;43;37;
74333;PMS5003;62753;40.394;-80.022;2023-05-07T02:06:33;39;37;
74333;PMS5003;62753;40.394;-80.022;2023-05-07T02:08:59;37;31;
74333;PMS5003;62753;40.394;-80.022;2023-05-07T02:11:24;32;30;
74333;PMS5003;62753;40.394;-80.022;2023-05-07T02:13:49;24;24;
74333;PMS5003;62753;40.394;-80.022;2023-05-07T02:16:15;26;24;
74333;PMS5003;62753;40.394;-80.022;2023-05-07T02:18:40;26;23;
74333;PMS5003;62753;40.394;-80.022;2023-05-07T02:21:06;21;20;
74333;PMS5003;62753;40.394;-80.022;2023-05-07T02:23:31;20;19;
74333;PMS5003;62753;40.394;-80.022;2023-05-07T02:25:57;29;26;
74333;PMS5003;62753;40.394;-80.022;2023-05-07T02:28:22;17;16;
74333;PMS5003;62753;40.394;-80.022;2023-05-07T02:30:48;24;22;
74333;PMS5003;62753;40.394;-80.022;2023-05-07T02:33:13;36;32;
74333;PMS5003;62753;40.394;-80.022;2023-05-07T02:35:39;46;40;
74333;PMS5003;62753;40.394;-80.022;2023-05-07T02:38:04;46;42;
74333;PMS5003;62753;40.394;-80.022;2023-05-07T02:40:29;39;36;
74333;PMS5003;62753;40.394;-80.022;2023-05-07T02:42:55;34;30;
74333;PMS5003;62753;40.394;-80.022;2023-05-07T02:45:20;68;57;
74333;PMS5003;62753;40.394;-80.022;2023-05-07T02:47:46;37;36;
74333;PMS5003;62753;40.394;-80.022;2023-05-07T02:50:11;30;27;
74333;PMS5003;62753;40.394;-80.022;2023-05-07T02:52:37;24;23;
74333;PMS5003;62753;40.394;-80.022;2023-05-07T02:55:02;30;23;
74333;PMS5003;62753;40.394;-80.022;2023-05-07T02:57:27;22;22;
74333;PMS5003;62753;40.394;-80.022;2023-05-07T02:59:52;22;21;
74333;PMS5003;62753;40.394;-80.022;2023-05-07T03:02:18;21;20;
74333;PMS5003;62753;40.394;-80.022;2023-05-07T03:04:44;21;21;
74333;PMS5003;62753;40.394;-80.022;2023-05-07T03:07:09;22;21;
74333;PMS5003;62753;40.394;-80.022;2023-05-07T03:09:34;24;19;
74333;PMS5003;62753;40.394;-80.022;2023-05-07T03:11:59;21;19;
74333;PMS5003;62753;40.394;-80.022;2023-05-07T03:14:25;15;15;
74333;PMS5003;62753;40.394;-80.022;2023-05-07T03:16:51;18;16;
74333;PMS5003;62753;40.394;-80.022;2023-05-07T03:19:16;17;16;
74333;PMS5003;62753;40.394;-80.022;2023-05-07T03:21:42;17;17;
74333;PMS5003;62753;40.394;-80.022;2023-05-07T03:24:08;19;18;
74333;PMS5003;62753;40.394;-80.022;2023-05-07T03:26:33;15;14;
74333;PMS5003;62753;40.394;-80.022;2023-05-07T03:28:58;15;14;
74333;PMS5003;62753;40.394;-80.022;2023-05-07T03:31:24;14;14;
74333;PMS5003;62753;40.394;-80.022;2023-05-07T03:33:50;15;15;
74333;PMS5003;62753;40.394;-80.022;2023-05-07T03:36:15;14;13;
74333;PMS5003;62753;40.394;-80.022;2023-05-07T03:38:40;13;13;
74333;PMS5003;62753;40.394;-80.022;2023-05-07T03:41:06;14;13;
74333;PMS5003;62753;40.394;-80.022;2023-05-07T03:43:31;12;12;
74333;PMS5003;62753;40.394;-80.022;2023-05-07T03:45:56;14;14;
74333;PMS5003;62753;40.394;-80.022;2023-05-07T03:48:22;17;16;
74333;PMS5003;62753;40.394;-80.022;2023-05-07T03:50:47;16;15;
74333;PMS5003;62753;40.394;-80.022;2023-05-07T03:53:12;16;16;
74333;PMS5003;62753;40.394;-80.022;2023-05-07T03:55:37;15;14;
74333;PMS5003;62753;40.394;-80.022;2023-05-07T03:58:03;14;13;
74333;PMS5003;62753;40.394;-80.022;2023-05-07T04:00:28;15;15;
74333;PMS5003;62753;40.394;-80.022;2023-05-07T04:02:54;14;12;
74333;PMS5003;62753;40.394;-80.022;2023-05-07T04:05:19;16;14;
74333;PMS5003;62753;40.394;-80.022;2023-05-07T04:07:44;12;11;
74333;PMS5003;62753;40.394;-80.022;2023-05-07T04:10:10;14;13;
74333;PMS5003;62753;40.394;-80.022;2023-05-07T04:12:35;12;11;
74333;PMS5003;62753;40.394;-80.022;2023-05-07T04:15:00;8;8;
74333;PMS5003;62753;40.394;-80.022;2023-05-07T04:17:25;13;10;
74333;PMS5003;62753;40.394;-80.022;2023-05-07T04:19:50;13;12;
74333;PMS5003;62753;40.394;-80.022;2023-05-07T04:22:16;10;8;
74333;PMS5003;62753;40.394;-80.022;2023-05-07T04:24:41;12;11;
74333;PMS5003;62753;40.394;-80.022;2023-05-07T04:27:07;12;12;
74333;PMS5003;62753;40.394;-80.022;2023-05-07T04:29:32;11;10;
74333;PMS5003;62753;40.394;-80.022;2023-05-07T04:31:57;12;11;
74333;PMS5003;62753;40.394;-80.022;2023-05-07T04:34:22;13;13;
74333;PMS5003;62753;40.394;-80.022;2023-05-07T04:36:52;15;14;
74333;PMS5003;62753;40.394;-80.022;2023-05-07T04:39:13;11;11;
74333;PMS5003;62753;40.394;-80.022;2023-05-07T04:41:38;12;11;
74333;PMS5003;62753;40.394;-80.022;2023-05-07T04:44:03;14;12;
74333;PMS5003;62753;40.394;-80.022;2023-05-07T04:46:28;11;11;
74333;PMS5003;62753;40.394;-80.022;2023-05-07T04:48:54;14;14;
74333;PMS5003;62753;40.394;-80.022;2023-05-07T04:51:19;18;17;
74333;PMS5003;62753;40.394;-80.022;2023-05-07T04:53:44;23;20;
74333;PMS5003;62753;40.394;-80.022;2023-05-07T04:56:09;18;17;
74333;PMS5003;62753;40.394;-80.022;2023-05-07T04:58:35;18;18;
74333;PMS5003;62753;40.394;-80.022;2023-05-07T05:01:00;20;17;
74333;PMS5003;62753;40.394;-80.022;2023-05-07T05:03:26;23;20;
74333;PMS5003;62753;40.394;-80.022;2023-05-07T05:05:51;20;18;
74333;PMS5003;62753;40.394;-80.022;2023-05-07T05:08:17;20;19;
74333;PMS5003;62753;40.394;-80.022;2023-05-07T05:10:43;18;17;
74333;PMS5003;62753;40.394;-80.022;2023-05-07T05:13:08;12;12;
74333;PMS5003;62753;40.394;-80.022;2023-05-07T05:15:33;15;15;
74333;PMS5003;62753;40.394;-80.022;2023-05-07T05:17:59;20;18;
74333;PMS5003;62753;40.394;-80.022;2023-05-07T05:20:24;15;15;
74333;PMS5003;62753;40.394;-80.022;2023-05-07T05:22:50;17;16;
74333;PMS5003;62753;40.394;-80.022;2023-05-07T05:25:15;16;16;
74333;PMS5003;62753;40.394;-80.022;2023-05-07T05:27:40;18;17;
74333;PMS5003;62753;40.394;-80.022;2023-05-07T05:30:06;20;17;
74333;PMS5003;62753;40.394;-80.022;2023-05-07T05:32:31;20;20;
74333;PMS5003;62753;40.394;-80.022;2023-05-07T05:34:57;18;17;
74333;PMS5003;62753;40.394;-80.022;2023-05-07T05:37:22;25;18;
74333;PMS5003;62753;40.394;-80.022;2023-05-07T05:39:48;18;17;
74333;PMS5003;62753;40.394;-80.022;2023-05-07T05:42:13;27;19;
74333;PMS5003;62753;40.394;-80.022;2023-05-07T05:44:38;18;16;
74333;PMS5003;62753;40.394;-80.022;2023-05-07T05:47:03;16;15;
74333;PMS5003;62753;40.394;-80.022;2023-05-07T05:49:29;15;13;
74333;PMS5003;62753;40.394;-80.022;2023-05-07T05:51:54;26;17;
74333;PMS5003;62753;40.394;-80.022;2023-05-07T05:54:19;13;12;
74333;PMS5003;62753;40.394;-80.022;2023-05-07T05:56:44;17;15;
74333;PMS5003;62753;40.394;-80.022;2023-05-07T05:59:10;15;14;
74333;PMS5003;62753;40.394;-80.022;2023-05-07T06:01:35;17;16;
74333;PMS5003;62753;40.394;-80.022;2023-05-07T06:04:00;19;16;
74333;PMS5003;62753;40.394;-80.022;2023-05-07T06:06:26;22;18;
74333;PMS5003;62753;40.394;-80.022;2023-05-07T06:08:51;15;14;
74333;PMS5003;62753;40.394;-80.022;2023-05-07T06:11:17;15;14;
74333;PMS5003;62753;40.394;-80.022;2023-05-07T06:13:42;16;14;
74333;PMS5003;62753;40.394;-80.022;2023-05-07T06:16:08;18;17;
74333;PMS5003;62753;40.394;-80.022;2023-05-07T06:18:33;17;16;
74333;PMS5003;62753;40.394;-80.022;2023-05-07T06:20:58;17;14;
74333;PMS5003;62753;40.394;-80.022;2023-05-07T06:23:24;22;17;
74333;PMS5003;62753;40.394;-80.022;2023-05-07T06:25:49;13;13;
74333;PMS5003;62753;40.394;-80.022;2023-05-07T06:28:15;15;14;
74333;PMS5003;62753;40.394;-80.022;2023-05-07T06:30:40;13;13;
74333;PMS5003;62753;40.394;-80.022;2023-05-07T06:33:05;19;17;
74333;PMS5003;62753;40.394;-80.022;2023-05-07T06:35:31;17;15;
74333;PMS5003;62753;40.394;-80.022;2023-05-07T06:37:56;20;15;
74333;PMS5003;62753;40.394;-80.022;2023-05-07T06:40:21;16;16;
74333;PMS5003;62753;40.394;-80.022;2023-05-07T06:42:47;16;15;
74333;PMS5003;62753;40.394;-80.022;2023-05-07T06:45:12;16;13;
74333;PMS5003;62753;40.394;-80.022;2023-05-07T06:47:38;22;17;
74333;PMS5003;62753;40.394;-80.022;2023-05-07T06:50:04;15;14;
74333;PMS5003;62753;40.394;-80.022;2023-05-07T06:52:29;23;19;
74333;PMS5003;62753;40.394;-80.022;2023-05-07T06:54:54;15;14;
74333;PMS5003;62753;40.394;-80.022;2023-05-07T06:57:19;19;16;
74333;PMS5003;62753;40.394;-80.022;2023-05-07T06:59:45;20;17;
74333;PMS5003;62753;40.394;-80.022;2023-05-07T07:02:10;19;17;
74333;PMS5003;62753;40.394;-80.022;2023-05-07T07:04:35;19;15;
74333;PMS5003;62753;40.394;-80.022;2023-05-07T07:07:01;18;15;
74333;PMS5003;62753;40.394;-80.022;2023-05-07T07:09:26;21;18;
74333;PMS5003;62753;40.394;-80.022;2023-05-07T07:11:51;24;20;
74333;PMS5003;62753;40.394;-80.022;2023-05-07T07:14:17;19;18;
74333;PMS5003;62753;40.394;-80.022;2023-05-07T07:16:42;25;23;
74333;PMS5003;62753;40.394;-80.022;2023-05-07T07:19:07;26;23;
74333;PMS5003;62753;40.394;-80.022;2023-05-07T07:21:33;29;25;
74333;PMS5003;62753;40.394;-80.022;2023-05-07T07:23:59;26;21;
74333;PMS5003;62753;40.394;-80.022;2023-05-07T07:26:24;25;23;
74333;PMS5003;62753;40.394;-80.022;2023-05-07T07:28:49;34;26;
74333;PMS5003;62753;40.394;-80.022;2023-05-07T07:31:15;30;26;
74333;PMS5003;62753;40.394;-80.022;2023-05-07T07:33:40;26;22;
74333;PMS5003;62753;40.394;-80.022;2023-05-07T07:36:06;28;23;
74333;PMS5003;62753;40.394;-80.022;2023-05-07T07:38:32;31;27;
74333;PMS5003;62753;40.394;-80.022;2023-05-07T07:40:57;34;27;
74333;PMS5003;62753;40.394;-80.022;2023-05-07T07:43:23;28;26;
74333;PMS5003;62753;40.394;-80.022;2023-05-07T07:45:49;30;24;
74333;PMS5003;62753;40.394;-80.022;2023-05-07T07:48:14;27;25;
74333;PMS5003;62753;40.394;-80.022;2023-05-07T07:50:39;32;23;
74333;PMS5003;62753;40.394;-80.022;2023-05-07T07:53:05;33;27;
74333;PMS5003;62753;40.394;-80.022;2023-05-07T07:55:30;31;28;
74333;PMS5003;62753;40.394;-80.022;2023-05-07T07:57:55;29;26;
74333;PMS5003;62753;40.394;-80.022;2023-05-07T08:00:21;27;25;
74333;PMS5003;62753;40.394;-80.022;2023-05-07T08:02:46;26;24;
74333;PMS5003;62753;40.394;-80.022;2023-05-07T08:05:11;33;24;
74333;PMS5003;62753;40.394;-80.022;2023-05-07T08:07:37;24;23;
74333;PMS5003;62753;40.394;-80.022;2023-05-07T08:10:02;23;22;
74333;PMS5003;62753;40.394;-80.022;2023-05-07T08:12:28;27;25;
74333;PMS5003;62753;40.394;-80.022;2023-05-07T08:14:54;24;23;
74333;PMS5003;62753;40.394;-80.022;2023-05-07T08:17:19;30;27;
74333;PMS5003;62753;40.394;-80.022;2023-05-07T08:19:44;30;26;
74333;PMS5003;62753;40.394;-80.022;2023-05-07T08:22:10;32;26;
74333;PMS5003;62753;40.394;-80.022;2023-05-07T08:24:35;32;30;
74333;PMS5003;62753;40.394;-80.022;2023-05-07T08:27:00;35;33;
74333;PMS5003;62753;40.394;-80.022;2023-05-07T08:29:25;34;30;
74333;PMS5003;62753;40.394;-80.022;2023-05-07T08:31:51;29;24;
74333;PMS5003;62753;40.394;-80.022;2023-05-07T08:34:16;26;23;
74333;PMS5003;62753;40.394;-80.022;2023-05-07T08:36:41;27;25;
74333;PMS5003;62753;40.394;-80.022;2023-05-07T08:39:07;20;19;
74333;PMS5003;62753;40.394;-80.022;2023-05-07T08:41:33;19;17;
74333;PMS5003;62753;40.394;-80.022;2023-05-07T08:43:58;18;17;
74333;PMS5003;62753;40.394;-80.022;2023-05-07T08:46:24;20;20;
74333;PMS5003;62753;40.394;-80.022;2023-05-07T08:48:49;21;19;
74333;PMS5003;62753;40.394;-80.022;2023-05-07T08:51:16;16;15;
74333;PMS5003;62753;40.394;-80.022;2023-05-07T08:53:40;15;15;
74333;PMS5003;62753;40.394;-80.022;2023-05-07T08:56:05;15;14;
74333;PMS5003;62753;40.394;-80.022;2023-05-07T08:58:31;17;14;
74333;PMS5003;62753;40.394;-80.022;2023-05-07T09:00:56;16;15;
74333;PMS5003;62753;40.394;-80.022;2023-05-07T09:03:22;21;18;
74333;PMS5003;62753;40.394;-80.022;2023-05-07T09:05:47;18;17;
74333;PMS5003;62753;40.394;-80.022;2023-05-07T09:08:14;16;15;
74333;PMS5003;62753;40.394;-80.022;2023-05-07T09:10:38;20;19;
74333;PMS5003;62753;40.394;-80.022;2023-05-07T09:13:04;21;18;
74333;PMS5003;62753;40.394;-80.022;2023-05-07T09:15:28;20;18;
74333;PMS5003;62753;40.394;-80.022;2023-05-07T09:17:55;24;20;
74333;PMS5003;62753;40.394;-80.022;2023-05-07T09:20:20;28;24;
74333;PMS5003;62753;40.394;-80.022;2023-05-07T09:22:45;21;20;
74333;PMS5003;62753;40.394;-80.022;2023-05-07T09:25:10;23;20;
74333;PMS5003;62753;40.394;-80.022;2023-05-07T09:27:36;21;19;
74333;PMS5003;62753;40.394;-80.022;2023-05-07T09:30:03;26;22;
74333;PMS5003;62753;40.394;-80.022;2023-05-07T09:32:27;21;18;
74333;PMS5003;62753;40.394;-80.022;2023-05-07T09:34:52;21;18;
74333;PMS5003;62753;40.394;-80.022;2023-05-07T09:37:18;21;20;
74333;PMS5003;62753;40.394;-80.022;2023-05-07T09:39:43;21;20;
74333;PMS5003;62753;40.394;-80.022;2023-05-07T09:42:08;23;22;
74333;PMS5003;62753;40.394;-80.022;2023-05-07T09:44:34;25;22;
74333;PMS5003;62753;40.394;-80.022;2023-05-07T09:47:00;23;22;
74333;PMS5003;62753;40.394;-80.022;2023-05-07T09:49:25;21;21;
74333;PMS5003;62753;40.394;-80.022;2023-05-07T09:51:51;25;21;
74333;PMS5003;62753;40.394;-80.022;2023-05-07T09:54:20;26;22;
74333;PMS5003;62753;40.394;-80.022;2023-05-07T09:56:42;21;20;
74333;PMS5003;62753;40.394;-80.022;2023-05-07T09:59:08;24;19;
74333;PMS5003;62753;40.394;-80.022;2023-05-07T10:01:33;21;19;
74333;PMS5003;62753;40.394;-80.022;2023-05-07T10:03:58;19;16;
74333;PMS5003;62753;40.394;-80.022;2023-05-07T10:06:24;23;19;
74333;PMS5003;62753;40.394;-80.022;2023-05-07T10:08:49;18;17;
74333;PMS5003;62753;40.394;-80.022;2023-05-07T10:11:15;21;18;
74333;PMS5003;62753;40.394;-80.022;2023-05-07T10:13:40;21;19;
74333;PMS5003;62753;40.394;-80.022;2023-05-07T10:16:06;21;20;
74333;PMS5003;62753;40.394;-80.022;2023-05-07T10:18:31;22;18;
74333;PMS5003;62753;40.394;-80.022;2023-05-07T10:20:58;21;20;
74333;PMS5003;62753;40.394;-80.022;2023-05-07T10:23:23;20;19;
74333;PMS5003;62753;40.394;-80.022;2023-05-07T10:25:48;20;16;
74333;PMS5003;62753;40.394;-80.022;2023-05-07T10:28:13;18;16;
74333;PMS5003;62753;40.394;-80.022;2023-05-07T10:30:40;21;19;
74333;PMS5003;62753;40.394;-80.022;2023-05-07T10:33:04;25;20;
74333;PMS5003;62753;40.394;-80.022;2023-05-07T10:35:30;19;18;
74333;PMS5003;62753;40.394;-80.022;2023-05-07T10:37:54;18;15;
74333;PMS5003;62753;40.394;-80.022;2023-05-07T10:40:20;17;17;
74333;PMS5003;62753;40.394;-80.022;2023-05-07T10:42:55;18;14;
74333;PMS5003;62753;40.394;-80.022;2023-05-07T10:45:12;18;16;
74333;PMS5003;62753;40.394;-80.022;2023-05-07T10:47:37;18;16;
74333;PMS5003;62753;40.394;-80.022;2023-05-07T10:52:27;17;15;
74333;PMS5003;62753;40.394;-80.022;2023-05-07T10:59:43;19;15;
74333;PMS5003;62753;40.394;-80.022;2023-05-07T11:02:09;18;17;
74333;PMS5003;62753;40.394;-80.022;2023-05-07T11:04:34;17;17;
74333;PMS5003;62753;40.394;-80.022;2023-05-07T11:09:25;21;19;
74333;PMS5003;62753;40.394;-80.022;2023-05-07T11:11:50;22;18;
74333;PMS5003;62753;40.394;-80.022;2023-05-07T11:16:41;17;15;
74333;PMS5003;62753;40.394;-80.022;2023-05-07T11:19:06;22;17;
74333;PMS5003;62753;40.394;-80.022;2023-05-07T11:21:32;17;17;
74333;PMS5003;62753;40.394;-80.022;2023-05-07T11:23:57;21;17;
74333;PMS5003;62753;40.394;-80.022;2023-05-07T11:26:22;16;16;
74333;PMS5003;62753;40.394;-80.022;2023-05-07T11:28:47;27;22;
74333;PMS5003;62753;40.394;-80.022;2023-05-07T11:31:12;20;18;
74333;PMS5003;62753;40.394;-80.022;2023-05-07T11:33:37;19;17;
74333;PMS5003;62753;40.394;-80.022;2023-05-07T11:36:03;26;19;
74333;PMS5003;62753;40.394;-80.022;2023-05-07T11:38:28;20;19;
74333;PMS5003;62753;40.394;-80.022;2023-05-07T11:40:54;20;19;
74333;PMS5003;62753;40.394;-80.022;2023-05-07T11:43:19;18;17;
74333;PMS5003;62753;40.394;-80.022;2023-05-07T11:45:45;23;21;
74333;PMS5003;62753;40.394;-80.022;2023-05-07T11:48:10;22;17;
74333;PMS5003;62753;40.394;-80.022;2023-05-07T11:50:35;24;22;
74333;PMS5003;62753;40.394;-80.022;2023-05-07T11:55:26;20;18;
74333;PMS5003;62753;40.394;-80.022;2023-05-07T11:57:52;20;19;
74333;PMS5003;62753;40.394;-80.022;2023-05-07T12:00:18;17;16;
74333;PMS5003;62753;40.394;-80.022;2023-05-07T12:02:45;16;15;
74333;PMS5003;62753;40.394;-80.022;2023-05-07T12:05:14;18;17;
74333;PMS5003;62753;40.394;-80.022;2023-05-07T12:07:34;14;13;
74333;PMS5003;62753;40.394;-80.022;2023-05-07T12:10:03;15;13;
74333;PMS5003;62753;40.394;-80.022;2023-05-07T12:12:25;14;14;
74333;PMS5003;62753;40.394;-80.022;2023-05-07T12:14:50;16;13;
74333;PMS5003;62753;40.394;-80.022;2023-05-07T12:17:15;16;15;
74333;PMS5003;62753;40.394;-80.022;2023-05-07T12:19:41;12;12;
74333;PMS5003;62753;40.394;-80.022;2023-05-07T12:22:07;14;14;
74333;PMS5003;62753;40.394;-80.022;2023-05-07T12:26:57;14;13;
74333;PMS5003;62753;40.394;-80.022;2023-05-07T12:29:22;14;12;
74333;PMS5003;62753;40.394;-80.022;2023-05-07T12:31:48;13;12;
74333;PMS5003;62753;40.394;-80.022;2023-05-07T12:34:14;12;11;
74333;PMS5003;62753;40.394;-80.022;2023-05-07T12:36:39;12;9;
74333;PMS5003;62753;40.394;-80.022;2023-05-07T12:39:04;12;11;
74333;PMS5003;62753;40.394;-80.022;2023-05-07T12:41:29;11;10;
74333;PMS5003;62753;40.394;-80.022;2023-05-07T12:43:56;10;9;
74333;PMS5003;62753;40.394;-80.022;2023-05-07T12:46:20;11;10;
74333;PMS5003;62753;40.394;-80.022;2023-05-07T12:48:45;9;8;
74333;PMS5003;62753;40.394;-80.022;2023-05-07T12:51:10;10;10;
74333;PMS5003;62753;40.394;-80.022;2023-05-07T12:53:38;10;9;
74333;PMS5003;62753;40.394;-80.022;2023-05-07T12:56:01;10;10;
74333;PMS5003;62753;40.394;-80.022;2023-05-07T12:58:27;12;10;
74333;PMS5003;62753;40.394;-80.022;2023-05-07T13:00:52;12;10;
74333;PMS5003;62753;40.394;-80.022;2023-05-07T13:03:21;8;8;
74333;PMS5003;62753;40.394;-80.022;2023-05-07T13:05:42;9;9;
74333;PMS5003;62753;40.394;-80.022;2023-05-07T13:08:07;9;9;
74333;PMS5003;62753;40.394;-80.022;2023-05-07T13:10:33;11;10;
74333;PMS5003;62753;40.394;-80.022;2023-05-07T13:12:58;12;10;
74333;PMS5003;62753;40.394;-80.022;2023-05-07T13:15:23;8;8;
74333;PMS5003;62753;40.394;-80.022;2023-05-07T13:17:48;10;10;
74333;PMS5003;62753;40.394;-80.022;2023-05-07T13:20:14;11;10;
74333;PMS5003;62753;40.394;-80.022;2023-05-07T13:22:39;9;9;
74333;PMS5003;62753;40.394;-80.022;2023-05-07T13:25:04;13;13;
74333;PMS5003;62753;40.394;-80.022;2023-05-07T13:27:29;11;9;
74333;PMS5003;62753;40.394;-80.022;2023-05-07T13:29:55;9;9;
74333;PMS5003;62753;40.394;-80.022;2023-05-07T13:32:20;8;8;
74333;PMS5003;62753;40.394;-80.022;2023-05-07T13:34:45;10;9;
74333;PMS5003;62753;40.394;-80.022;2023-05-07T13:37:10;10;10;
74333;PMS5003;62753;40.394;-80.022;2023-05-07T13:39:35;11;10;
74333;PMS5003;62753;40.394;-80.022;2023-05-07T13:42:01;8;8;
74333;PMS5003;62753;40.394;-80.022;2023-05-07T13:44:26;9;8;
74333;PMS5003;62753;40.394;-80.022;2023-05-07T13:46:52;11;9;
74333;PMS5003;62753;40.394;-80.022;2023-05-07T13:49:17;11;10;
74333;PMS5003;62753;40.394;-80.022;2023-05-07T13:51:42;11;10;
74333;PMS5003;62753;40.394;-80.022;2023-05-07T13:54:07;12;10;
74333;PMS5003;62753;40.394;-80.022;2023-05-07T13:56:32;9;9;
74333;PMS5003;62753;40.394;-80.022;2023-05-07T13:58:58;9;9;
74333;PMS5003;62753;40.394;-80.022;2023-05-07T14:01:23;8;8;
74333;PMS5003;62753;40.394;-80.022;2023-05-07T14:03:48;10;9;
74333;PMS5003;62753;40.394;-80.022;2023-05-07T14:06:13;9;8;
74333;PMS5003;62753;40.394;-80.022;2023-05-07T14:08:39;7;7;
74333;PMS5003;62753;40.394;-80.022;2023-05-07T14:11:04;11;9;
74333;PMS5003;62753;40.394;-80.022;2023-05-07T14:13:30;10;10;
74333;PMS5003;62753;40.394;-80.022;2023-05-07T14:15:55;9;9;
74333;PMS5003;62753;40.394;-80.022;2023-05-07T14:18:20;9;8;
74333;PMS5003;62753;40.394;-80.022;2023-05-07T14:20:45;8;8;
74333;PMS5003;62753;40.394;-80.022;2023-05-07T14:23:10;8;7;
74333;PMS5003;62753;40.394;-80.022;2023-05-07T14:25:36;10;9;
74333;PMS5003;62753;40.394;-80.022;2023-05-07T14:28:01;8;8;
74333;PMS5003;62753;40.394;-80.022;2023-05-07T14:30:26;12;10;
74333;PMS5003;62753;40.394;-80.022;2023-05-07T14:32:51;10;9;
74333;PMS5003;62753;40.394;-80.022;2023-05-07T14:35:17;10;10;
74333;PMS5003;62753;40.394;-80.022;2023-05-07T14:37:42;8;8;
74333;PMS5003;62753;40.394;-80.022;2023-05-07T14:40:08;9;8;
74333;PMS5003;62753;40.394;-80.022;2023-05-07T14:42:32;10;9;
74333;PMS5003;62753;40.394;-80.022;2023-05-07T14:44:58;10;10;
74333;PMS5003;62753;40.394;-80.022;2023-05-07T14:47:23;10;9;
74333;PMS5003;62753;40.394;-80.022;2023-05-07T14:49:48;9;8;
74333;PMS5003;62753;40.394;-80.022;2023-05-07T14:52:13;10;9;
74333;PMS5003;62753;40.394;-80.022;2023-05-07T14:54:39;8;6;
74333;PMS5003;62753;40.394;-80.022;2023-05-07T14:57:04;8;8;
74333;PMS5003;62753;40.394;-80.022;2023-05-07T14:59:29;6;6;
74333;PMS5003;62753;40.394;-80.022;2023-05-07T15:01:54;10;9;
74333;PMS5003;62753;40.394;-80.022;2023-05-07T15:04:19;11;10;
74333;PMS5003;62753;40.394;-80.022;2023-05-07T15:06:45;9;9;
74333;PMS5003;62753;40.394;-80.022;2023-05-07T15:09:10;10;10;
74333;PMS5003;62753;40.394;-80.022;2023-05-07T15:11:35;11;10;
74333;PMS5003;62753;40.394;-80.022;2023-05-07T15:14:00;10;10;
74333;PMS5003;62753;40.394;-80.022;2023-05-07T15:16:26;9;9;
74333;PMS5003;62753;40.394;-80.022;2023-05-07T15:18:51;11;10;
74333;PMS5003;62753;40.394;-80.022;2023-05-07T15:21:16;8;8;
74333;PMS5003;62753;40.394;-80.022;2023-05-07T15:23:41;10;9;
74333;PMS5003;62753;40.394;-80.022;2023-05-07T15:26:07;9;9;
74333;PMS5003;62753;40.394;-80.022;2023-05-07T15:28:32;11;10;
74333;PMS5003;62753;40.394;-80.022;2023-05-07T15:30:57;11;10;
74333;PMS5003;62753;40.394;-80.022;2023-05-07T15:33:23;10;9;
74333;PMS5003;62753;40.394;-80.022;2023-05-07T15:35:47;8;8;
74333;PMS5003;62753;40.394;-80.022;2023-05-07T15:38:13;9;8;
74333;PMS5003;62753;40.394;-80.022;2023-05-07T15:40:38;11;10;
74333;PMS5003;62753;40.394;-80.022;2023-05-07T15:43:03;9;8;
74333;PMS5003;62753;40.394;-80.022;2023-05-07T15:45:28;11;10;
74333;PMS5003;62753;40.394;-80.022;2023-05-07T15:47:53;9;8;
74333;PMS5003;62753;40.394;-80.022;2023-05-07T15:50:18;9;9;
74333;PMS5003;62753;40.394;-80.022;2023-05-07T15:52:45;11;10;
74333;PMS5003;62753;40.394;-80.022;2023-05-07T15:55:10;10;9;